Time;durP1;ratioP1;P1;durP2;ratioP2;P2;SDS_P1;SDS_P2;PMS_P1;PMS_P2;Temp;Humidity;BMP_temperature;BMP_pressure;BME280_temperature;BME280_humidity;BME280_pressure;Samples;Min_cycle;Max_cycle;Signal;HPM_P1;HPM_P2
2022/08/28 00:00:08;;;;;;;19.73;6.88;;;;;;;17.06;78.30;99423.44;5058439;28;20031;-56
2022/08/28 00:02:34;;;;;;;14.77;6.90;;;;;;;16.90;79.41;99415.41;5065194;28;20039;-55
2022/08/28 00:05:00;;;;;;;16.73;6.65;;;;;;;16.96;79.19;99424.28;5071478;28;20044;-55
2022/08/28 00:07:26;;;;;;;12.18;6.40;;;;;;;17.03;78.79;99425.59;5071077;28;20040;-56
2022/08/28 00:09:51;;;;;;;13.48;6.38;;;;;;;16.98;78.87;99428.34;5064517;28;20108;-55
2022/08/28 00:12:17;;;;;;;10.15;5.80;;;;;;;17.04;78.52;99427.19;5065120;28;20459;-55
2022/08/28 00:14:42;;;;;;;15.40;6.93;;;;;;;17.06;78.48;99435.06;5058800;28;20040;-55
2022/08/28 00:17:08;;;;;;;11.55;6.85;;;;;;;17.05;78.64;99447.00;5066501;28;20024;-56
2022/08/28 00:19:33;;;;;;;13.98;6.45;;;;;;;16.99;78.80;99439.97;5070985;28;20031;-55
2022/08/28 00:21:59;;;;;;;15.18;6.60;;;;;;;17.07;78.96;99438.56;5065435;28;20031;-55
2022/08/28 00:24:24;;;;;;;14.57;7.00;;;;;;;16.96;79.21;99441.34;5060328;28;20041;-55
2022/08/28 00:29:33;;;;;;;19.63;7.18;;;;;;;16.88;80.32;99444.63;5056451;28;20711;-55
2022/08/28 00:31:59;;;;;;;13.10;7.03;;;;;;;16.88;79.74;99438.41;5069336;28;20471;-55
2022/08/28 00:34:26;;;;;;;13.18;7.25;;;;;;;16.94;79.27;99448.94;5060420;28;20402;-56
2022/08/28 00:36:51;;;;;;;13.60;7.43;;;;;;;16.91;79.15;99444.06;5066905;28;20021;-56
2022/08/28 00:39:16;;;;;;;17.25;7.65;;;;;;;16.89;79.52;99445.44;5068687;28;20021;-55
2022/08/28 00:41:42;;;;;;;16.50;7.40;;;;;;;16.92;79.65;99442.97;5070854;28;20204;-55
2022/08/28 00:44:13;;;;;;;16.55;7.65;;;;;;;16.90;79.63;99439.75;5065549;28;20352;-55
2022/08/28 00:46:39;;;;;;;12.85;6.75;;;;;;;16.97;79.81;99436.72;5065526;28;20066;-56
2022/08/28 00:49:05;;;;;;;17.02;6.68;;;;;;;16.94;80.27;99443.50;5069476;28;20024;-55
2022/08/28 00:54:14;;;;;;;18.02;6.80;;;;;;;16.92;80.53;99434.84;5067435;28;20093;-56
2022/08/28 00:56:40;;;;;;;13.73;7.22;;;;;;;16.95;79.07;99445.16;5051784;28;20033;-56
2022/08/28 00:59:07;;;;;;;16.83;6.72;;;;;;;16.96;79.58;99441.34;5052007;28;20104;-56
2022/08/28 01:01:33;;;;;;;18.02;7.70;;;;;;;16.90;80.25;99447.88;5069894;28;20036;-55
2022/08/28 01:04:00;;;;;;;20.90;7.82;;;;;;;16.94;79.82;99451.63;5070268;28;20082;-56
2022/08/28 01:06:25;;;;;;;15.23;7.18;;;;;;;16.87;80.07;99443.00;5069258;28;20037;-56
2022/08/28 01:08:53;;;;;;;12.85;7.10;;;;;;;16.74;80.99;99443.59;5068786;28;20035;-55
2022/08/28 01:11:18;;;;;;;17.55;6.70;;;;;;;16.79;80.57;99447.09;5064347;28;20032;-57
2022/08/28 01:13:47;;;;;;;17.73;7.07;;;;;;;16.77;79.95;99438.44;5062972;28;20029;-56
2022/08/28 01:16:14;;;;;;;22.63;7.35;;;;;;;16.85;79.63;99447.06;5076119;28;20025;-56
2022/08/28 01:18:40;;;;;;;16.60;7.05;;;;;;;16.97;79.09;99447.56;5063645;28;20031;-56
2022/08/28 01:21:22;;;;;;;20.85;6.57;;;;;;;16.86;79.68;99441.41;5058427;28;20036;-56
2022/08/28 01:24:13;;;;;;;10.77;6.13;;;;;;;16.90;79.35;99447.88;5070099;28;20029;-55
2022/08/28 01:26:39;;;;;;;18.27;7.65;;;;;;;16.93;78.94;99439.19;5057882;28;20036;-55
2022/08/28 01:29:06;;;;;;;16.25;6.70;;;;;;;17.00;79.38;99437.00;5062716;28;20024;-56
2022/08/28 01:31:31;;;;;;;14.15;7.00;;;;;;;17.05;78.76;99444.28;5051446;28;20098;-55
2022/08/28 01:33:58;;;;;;;26.38;7.45;;;;;;;16.91;79.10;99441.38;5063352;28;20036;-54
2022/08/28 01:36:24;;;;;;;14.77;6.75;;;;;;;16.96;79.14;99438.63;5061185;28;20107;-55
2022/08/28 01:39:01;;;;;;;12.68;7.05;;;;;;;16.89;79.78;99438.13;5050737;28;20033;-56
2022/08/28 01:41:28;;;;;;;12.90;7.03;;;;;;;16.83;79.37;99436.53;5053479;28;20025;-55
2022/08/28 01:43:53;;;;;;;18.65;6.90;;;;;;;16.79;79.34;99440.88;5056540;28;20089;-56
2022/08/28 01:46:19;;;;;;;20.38;7.35;;;;;;;16.78;79.35;99439.28;5069166;28;20033;-55
2022/08/28 01:48:45;;;;;;;19.42;6.55;;;;;;;16.74;79.64;99438.97;5052646;28;20033;-55
2022/08/28 01:51:10;;;;;;;12.57;6.63;;;;;;;16.78;79.37;99439.28;5064585;28;20027;-55
2022/08/28 01:53:36;;;;;;;23.40;7.25;;;;;;;16.81;79.39;99447.63;5051103;28;20051;-55
2022/08/28 01:56:03;;;;;;;14.55;6.93;;;;;;;16.89;78.65;99440.84;5052373;28;20040;-55
2022/08/28 01:58:29;;;;;;;16.58;6.70;;;;;;;16.96;78.38;99452.16;5065248;28;20028;-55
2022/08/28 02:00:54;;;;;;;14.40;6.93;;;;;;;16.99;79.29;99451.59;5100276;28;20028;-56
2022/08/28 02:03:20;;;;;;;14.13;6.60;;;;;;;17.03;78.29;99452.69;5052258;28;20027;-55
2022/08/28 02:05:46;;;;;;;13.65;6.30;;;;;;;16.97;79.12;99453.81;5056617;28;20044;-56
2022/08/28 02:08:12;;;;;;;19.70;6.45;;;;;;;16.99;78.75;99446.19;5069246;28;20032;-55
2022/08/28 02:10:38;;;;;;;17.00;7.03;;;;;;;16.93;78.33;99450.03;5069314;28;20025;-55
2022/08/28 02:13:04;;;;;;;12.75;6.35;;;;;;;16.99;78.90;99448.91;5052388;28;20029;-55
2022/08/28 02:15:30;;;;;;;12.73;6.70;;;;;;;17.00;79.12;99450.53;5058219;28;20114;-55
2022/08/28 02:17:56;;;;;;;12.73;6.07;;;;;;;16.94;80.03;99448.13;5069192;28;20438;-55
2022/08/28 02:20:22;;;;;;;14.48;6.50;;;;;;;16.90;80.14;99453.31;5058131;28;20048;-55
2022/08/28 02:22:47;;;;;;;17.20;6.68;;;;;;;16.95;78.98;99455.19;5060130;28;20043;-55
2022/08/28 02:25:15;;;;;;;17.50;6.05;;;;;;;16.95;79.19;99455.97;5058350;28;20032;-55
2022/08/28 02:27:41;;;;;;;13.55;6.47;;;;;;;16.97;79.11;99459.22;5064080;28;20033;-56
2022/08/28 02:30:07;;;;;;;15.45;6.38;;;;;;;16.94;79.25;99462.47;5069043;28;20448;-56
2022/08/28 02:32:33;;;;;;;17.85;6.03;;;;;;;16.98;78.68;99458.13;5068247;28;20033;-55
2022/08/28 02:34:58;;;;;;;16.38;6.07;;;;;;;16.99;78.96;99458.91;5064037;28;20035;-56
2022/08/28 02:37:24;;;;;;;12.98;6.20;;;;;;;17.01;78.93;99452.13;5068157;28;20028;-56
2022/08/28 02:39:53;;;;;;;15.63;6.85;;;;;;;17.13;78.02;99453.72;5063872;28;20029;-55
2022/08/28 02:42:18;;;;;;;18.13;6.75;;;;;;;17.07;78.00;99458.31;5063830;28;20479;-55
2022/08/28 02:44:44;;;;;;;14.73;6.93;;;;;;;16.95;78.09;99455.97;5065929;28;20075;-56
2022/08/28 02:47:09;;;;;;;12.65;6.47;;;;;;;16.95;77.96;99455.19;5069021;28;20070;-55
2022/08/28 02:49:35;;;;;;;13.68;6.28;;;;;;;16.87;78.57;99453.84;5100951;28;20039;-55
2022/08/28 02:52:00;;;;;;;13.88;6.82;;;;;;;16.81;79.28;99452.25;5069061;28;20055;-55
2022/08/28 02:54:25;;;;;;;14.55;6.35;;;;;;;16.72;80.06;99454.69;5068749;28;20017;-56
2022/08/28 02:56:52;;;;;;;13.45;6.07;;;;;;;16.85;79.42;99450.63;5068154;28;20036;-56
2022/08/28 02:59:17;;;;;;;18.33;6.28;;;;;;;16.87;79.04;99451.13;5068308;28;20045;-55
2022/08/28 03:01:43;;;;;;;12.68;6.80;;;;;;;16.80;79.17;99445.22;5059608;28;20029;-56
2022/08/28 03:04:08;;;;;;;14.73;6.25;;;;;;;16.85;78.87;99444.38;5057852;28;20025;-55
2022/08/28 03:06:34;;;;;;;10.15;6.07;;;;;;;16.77;79.49;99443.03;5057625;28;20237;-56
2022/08/28 03:08:59;;;;;;;19.67;6.10;;;;;;;16.79;79.80;99447.09;5060314;28;20025;-55
2022/08/28 03:11:25;;;;;;;13.00;6.43;;;;;;;16.72;79.89;99441.16;5066431;28;20029;-55
2022/08/28 03:13:51;;;;;;;16.65;6.60;;;;;;;16.64;79.85;99447.16;5068836;28;20024;-55
2022/08/28 03:16:17;;;;;;;15.75;6.15;;;;;;;16.59;80.26;99437.16;5060289;28;20036;-55
2022/08/28 03:18:42;;;;;;;15.00;5.82;;;;;;;16.52;80.95;99443.94;5064001;28;20029;-56
2022/08/28 03:21:08;;;;;;;18.10;6.63;;;;;;;16.57;80.35;99439.34;5060650;28;20084;-55
2022/08/28 03:23:33;;;;;;;13.73;6.45;;;;;;;16.56;80.72;99442.31;5051935;28;20033;-55
2022/08/28 03:26:07;;;;;;;15.93;6.25;;;;;;;16.47;80.99;99443.97;5063917;28;20046;-55
2022/08/28 03:28:38;;;;;;;15.98;6.93;;;;;;;16.65;79.92;99443.38;5066164;28;20115;-55
2022/08/28 03:31:05;;;;;;;21.05;7.47;;;;;;;16.54;80.75;99445.28;5062607;28;20478;-55
2022/08/28 03:33:30;;;;;;;15.88;6.80;;;;;;;16.48;81.03;99451.81;5070272;28;20127;-56
2022/08/28 03:35:56;;;;;;;14.30;6.35;;;;;;;16.51;80.76;99447.75;5086834;28;20056;-55
2022/08/28 03:38:22;;;;;;;19.10;6.90;;;;;;;16.52;80.82;99444.75;5066128;28;20024;-57
2022/08/28 03:40:47;;;;;;;13.88;6.45;;;;;;;16.48;81.11;99441.00;5056461;28;20025;-57
2022/08/28 03:43:17;;;;;;;17.83;7.20;;;;;;;16.49;81.50;99448.00;5055054;28;20071;-56
2022/08/28 03:45:59;;;;;;;14.38;6.80;;;;;;;16.52;81.32;99450.16;5058107;28;20025;-55
2022/08/28 03:48:25;;;;;;;22.17;7.25;;;;;;;16.50;81.65;99449.66;5056043;28;20052;-56
2022/08/28 03:50:54;;;;;;;16.00;6.47;;;;;;;16.56;81.12;99453.94;5058648;28;20036;-54
2022/08/28 03:53:23;;;;;;;16.50;6.55;;;;;;;16.60;80.81;99449.59;5066692;28;20034;-55
2022/08/28 03:55:48;;;;;;;15.13;6.78;;;;;;;16.61;81.73;99453.91;5070438;28;20024;-56
2022/08/28 03:58:14;;;;;;;17.55;6.90;;;;;;;16.67;80.74;99454.69;5066084;28;20086;-55
2022/08/28 04:00:41;;;;;;;14.82;6.40;;;;;;;16.66;80.88;99455.00;5061724;28;20424;-56
2022/08/28 04:03:06;;;;;;;13.25;6.22;;;;;;;16.63;81.15;99452.84;5069406;28;20040;-56
2022/08/28 04:05:33;;;;;;;16.63;6.05;;;;;;;16.59;81.44;99453.38;5053372;28;20045;-56
2022/08/28 04:08:00;;;;;;;15.77;6.65;;;;;;;16.52;81.54;99454.75;5065530;28;20086;-55
2022/08/28 04:10:26;;;;;;;15.43;6.50;;;;;;;16.56;81.21;99448.53;5055683;28;20024;-56
2022/08/28 04:12:52;;;;;;;15.50;6.28;;;;;;;16.56;81.09;99456.66;5071825;28;20027;-55
2022/08/28 04:15:19;;;;;;;15.35;5.78;;;;;;;16.44;81.69;99448.03;5053690;28;20057;-56
2022/08/28 04:17:44;;;;;;;17.90;6.40;;;;;;;16.44;82.21;99444.53;5054173;28;20464;-56
2022/08/28 04:20:10;;;;;;;15.50;6.10;;;;;;;16.44;81.95;99456.16;5061663;28;20028;-55
2022/08/28 04:22:36;;;;;;;15.73;7.28;;;;;;;16.49;81.83;99453.41;5068148;28;20407;-54
2022/08/28 04:25:02;;;;;;;14.27;6.63;;;;;;;16.41;81.91;99462.13;5069689;28;20043;-55
2022/08/28 04:27:27;;;;;;;11.20;6.15;;;;;;;16.37;81.82;99461.88;5066458;28;20032;-55
2022/08/28 04:29:53;;;;;;;17.40;6.22;;;;;;;16.39;81.96;99466.97;5065609;28;20025;-56
2022/08/28 04:32:18;;;;;;;15.23;6.03;;;;;;;16.43;81.50;99465.34;5065798;28;20032;-56
2022/08/28 04:34:44;;;;;;;21.15;6.78;;;;;;;16.29;82.42;99470.53;5070946;28;20025;-56
2022/08/28 04:37:09;;;;;;;15.70;6.45;;;;;;;16.39;82.07;99475.91;5070860;28;20023;-55
2022/08/28 04:39:34;;;;;;;19.73;6.40;;;;;;;16.46;81.93;99474.81;5070615;28;20021;-55
2022/08/28 04:42:00;;;;;;;13.43;6.18;;;;;;;16.47;81.70;99482.63;5070195;28;20471;-56
2022/08/28 04:44:25;;;;;;;24.48;6.53;;;;;;;16.54;81.46;99477.75;5070623;28;20069;-55
2022/08/28 04:46:52;;;;;;;15.90;5.72;;;;;;;16.48;81.90;99484.28;5068134;28;20024;-56
2022/08/28 04:49:17;;;;;;;14.95;6.47;;;;;;;16.50;82.41;99481.28;5062605;28;20035;-55
2022/08/28 04:51:42;;;;;;;22.02;6.90;;;;;;;16.53;80.97;99481.56;5059540;28;20021;-56
2022/08/28 04:54:09;;;;;;;13.82;6.18;;;;;;;16.59;81.93;99496.69;5065548;28;20467;-55
2022/08/28 04:56:35;;;;;;;16.92;6.55;;;;;;;16.59;80.92;99495.88;5061463;28;20025;-56
2022/08/28 04:59:01;;;;;;;14.75;5.63;;;;;;;16.57;81.17;99498.03;5070822;28;20028;-56
2022/08/28 05:01:26;;;;;;;18.13;5.95;;;;;;;16.55;80.58;99497.53;5068946;28;20024;-56
2022/08/28 05:03:54;;;;;;;16.70;6.00;;;;;;;16.60;80.74;99502.91;5057519;28;20028;-56
2022/08/28 05:06:20;;;;;;;14.50;5.78;;;;;;;16.60;80.98;99505.63;5064029;28;20072;-56
2022/08/28 05:08:46;;;;;;;11.13;5.85;;;;;;;16.67;80.55;99508.81;5065823;28;20068;-55
2022/08/28 05:11:20;;;;;;;18.95;6.50;;;;;;;16.67;80.71;99508.81;5062425;28;20358;-55
2022/08/28 05:13:46;;;;;;;16.88;5.93;;;;;;;16.69;80.00;99516.69;5061800;28;20033;-56
2022/08/28 05:16:11;;;;;;;15.20;5.50;;;;;;;16.60;80.04;99514.53;5069820;28;20035;-55
2022/08/28 05:18:37;;;;;;;14.05;5.97;;;;;;;16.42;80.85;99512.41;5064747;28;20024;-55
2022/08/28 05:21:02;;;;;;;16.63;6.63;;;;;;;16.44;80.60;99510.25;5068271;28;20029;-55
2022/08/28 05:23:28;;;;;;;18.58;5.72;;;;;;;16.56;80.11;99512.66;5053035;28;20025;-55
2022/08/28 05:25:53;;;;;;;18.98;5.68;;;;;;;16.49;80.57;99506.72;5066437;28;20462;-55
2022/08/28 05:28:19;;;;;;;15.88;5.57;;;;;;;16.45;80.54;99501.06;5067456;28;20379;-56
2022/08/28 05:30:44;;;;;;;19.73;6.75;;;;;;;16.54;79.91;99506.72;5070294;28;20024;-54
2022/08/28 05:33:12;;;;;;;15.43;6.18;;;;;;;16.52;79.90;99517.78;5068476;28;20035;-55
2022/08/28 05:35:39;;;;;;;20.90;6.22;;;;;;;16.53;80.20;99514.03;5063841;28;20095;-54
2022/08/28 05:38:05;;;;;;;19.98;7.20;;;;;;;16.52;79.84;99508.88;5085910;28;20301;-55
2022/08/28 05:40:30;;;;;;;13.40;5.93;;;;;;;16.64;79.81;99516.69;5060825;28;20036;-55
2022/08/28 05:42:56;;;;;;;11.95;5.70;;;;;;;16.82;79.12;99518.81;5064008;28;20021;-55
2022/08/28 05:45:22;;;;;;;18.20;6.45;;;;;;;16.93;78.91;99525.84;5068336;28;20035;-55
2022/08/28 05:47:47;;;;;;;18.45;5.93;;;;;;;17.19;77.28;99525.72;5068427;28;20029;-55
2022/08/28 05:50:13;;;;;;;11.48;5.55;;;;;;;17.50;76.55;99520.94;5063114;28;20024;-55
2022/08/28 05:52:41;;;;;;;17.08;5.45;;;;;;;18.63;73.11;99531.63;5058964;28;20025;-55
2022/08/28 05:55:08;;;;;;;12.77;5.32;;;;;;;18.56;71.14;99535.78;5069687;28;20024;-55
2022/08/28 05:57:34;;;;;;;15.82;5.63;;;;;;;18.16;73.30;99535.91;5058012;28;20733;-55
2022/08/28 06:00:01;;;;;;;14.63;5.10;;;;;;;18.11;73.79;99544.09;5059410;28;20033;-56
2022/08/28 06:02:26;;;;;;;14.73;5.97;;;;;;;18.38;73.05;99535.44;5060316;28;20032;-54
2022/08/28 06:04:52;;;;;;;13.98;5.82;;;;;;;19.34;69.30;99546.28;5064184;28;20045;-55
2022/08/28 06:07:18;;;;;;;16.33;5.20;;;;;;;19.38;68.87;99546.50;5069552;28;20034;-55
2022/08/28 06:09:43;;;;;;;15.73;5.50;;;;;;;20.14;65.62;99549.97;5062877;28;20383;-55
2022/08/28 06:12:09;;;;;;;11.88;5.78;;;;;;;22.01;60.54;99555.75;5066680;28;20016;-55
2022/08/28 06:14:34;;;;;;;13.13;5.30;;;;;;;20.89;63.05;99562.56;5067476;28;20514;-56
2022/08/28 06:17:00;;;;;;;12.88;5.18;;;;;;;21.52;61.34;99565.63;5064924;28;20027;-54
2022/08/28 06:19:26;;;;;;;11.35;5.07;;;;;;;22.52;58.19;99562.69;5064389;28;20028;-56
2022/08/28 06:21:59;;;;;;;15.75;5.15;;;;;;;22.17;58.83;99562.44;5063521;28;20029;-55
2022/08/28 06:24:25;;;;;;;13.30;4.85;;;;;;;21.56;60.36;99563.91;5069066;28;20031;-55
2022/08/28 06:26:53;;;;;;;13.25;4.90;;;;;;;23.18;56.07;99561.97;5101739;28;20021;-55
2022/08/28 06:29:19;;;;;;;11.30;4.90;;;;;;;22.78;56.85;99557.31;5069251;28;20021;-56
2022/08/28 06:31:45;;;;;;;12.90;4.72;;;;;;;23.55;55.06;99559.78;5067989;28;20037;-55
2022/08/28 06:34:10;;;;;;;14.88;4.78;;;;;;;24.59;52.07;99565.19;5067635;28;20024;-57
2022/08/28 06:36:38;;;;;;;12.85;4.25;;;;;;;24.37;51.64;99557.97;5062353;28;20032;-56
2022/08/28 06:39:04;;;;;;;12.35;3.97;;;;;;;24.77;50.64;99562.38;5062794;28;20086;-56
2022/08/28 06:41:30;;;;;;;16.00;4.18;;;;;;;24.95;50.20;99564.69;5055223;28;20037;-55
2022/08/28 06:43:56;;;;;;;14.60;4.20;;;;;;;23.59;53.81;99560.78;5071277;28;20056;-55
2022/08/28 06:46:22;;;;;;;10.88;4.03;;;;;;;23.06;54.74;99564.50;5060918;28;20452;-55
2022/08/28 06:48:47;;;;;;;11.45;3.92;;;;;;;24.10;52.85;99554.47;5062843;28;20378;-57
2022/08/28 06:51:12;;;;;;;13.90;4.03;;;;;;;24.34;51.17;99558.63;5068730;28;20040;-56
2022/08/28 06:53:38;;;;;;;14.02;3.80;;;;;;;24.68;50.46;99565.16;5060168;28;20036;-56
2022/08/28 06:56:07;;;;;;;9.70;4.00;;;;;;;23.67;53.21;99563.50;5063048;28;20035;-56
2022/08/28 06:58:32;;;;;;;10.60;3.53;;;;;;;23.08;54.79;99556.81;5063303;28;20028;-56
2022/08/28 07:01:11;;;;;;;14.40;3.80;;;;;;;24.64;50.73;99567.75;5064751;28;20025;-55
2022/08/28 07:03:37;;;;;;;11.82;3.65;;;;;;;25.00;49.98;99571.94;5068234;28;20115;-56
2022/08/28 07:06:04;;;;;;;14.13;3.88;;;;;;;23.03;53.95;99564.03;5070596;28;20037;-56
2022/08/28 07:08:29;;;;;;;17.25;4.18;;;;;;;23.21;53.88;99567.63;5101048;28;20051;-56
2022/08/28 07:10:56;;;;;;;14.18;3.97;;;;;;;24.63;50.25;99570.81;5072301;28;20101;-56
2022/08/28 07:13:21;;;;;;;8.77;3.50;;;;;;;24.74;49.71;99572.88;5059302;28;20376;-55
2022/08/28 07:15:47;;;;;;;13.45;3.78;;;;;;;24.10;51.56;99562.69;5062602;28;20238;-56
2022/08/28 07:18:12;;;;;;;13.70;3.50;;;;;;;22.84;53.61;99571.66;5065357;28;20089;-55
2022/08/28 07:20:38;;;;;;;13.60;3.88;;;;;;;24.36;50.81;99580.19;5071837;28;20020;-56
2022/08/28 07:23:10;;;;;;;10.02;3.33;;;;;;;24.53;50.66;99571.97;5072168;28;20021;-56
2022/08/28 07:25:41;;;;;;;12.45;3.63;;;;;;;24.03;51.71;99575.25;5100222;28;20399;-52
2022/08/28 07:28:07;;;;;;;15.85;3.50;;;;;;;24.61;50.63;99573.88;5072318;28;20078;-54
2022/08/28 07:30:33;;;;;;;12.07;3.80;;;;;;;25.46;47.70;99569.44;5061346;28;20111;-55
2022/08/28 07:32:58;;;;;;;14.38;4.00;;;;;;;24.79;48.87;99573.78;5070560;28;20024;-55
2022/08/28 07:35:23;;;;;;;10.80;3.47;;;;;;;25.50;47.86;99571.19;5066877;28;20029;-55
2022/08/28 07:37:49;;;;;;;15.45;3.72;;;;;;;24.72;49.21;99575.13;5069365;28;20028;-54
2022/08/28 07:40:15;;;;;;;10.77;3.38;;;;;;;24.30;51.15;99580.38;5061165;28;20029;-55
2022/08/28 07:45:25;;;;;;;9.32;3.50;;;;;;;24.78;49.17;99580.41;5060920;28;20116;-55
2022/08/28 07:47:50;;;;;;;10.55;3.30;;;;;;;24.09;50.77;99587.66;5060351;28;20029;-55
2022/08/28 07:50:16;;;;;;;11.23;3.60;;;;;;;23.35;53.00;99586.63;5063020;28;20037;-55
2022/08/28 07:52:41;;;;;;;8.73;3.38;;;;;;;21.29;58.15;99592.81;5068413;28;20040;-55
2022/08/28 07:55:07;;;;;;;13.73;3.40;;;;;;;22.63;55.50;99592.44;5071962;28;20036;-55
2022/08/28 07:57:33;;;;;;;13.15;4.00;;;;;;;22.99;54.15;99587.66;5065107;28;20028;-55
2022/08/28 07:59:59;;;;;;;10.90;3.65;;;;;;;23.10;54.20;99582.69;5071546;28;20031;-54
2022/08/28 08:02:24;;;;;;;7.85;3.70;;;;;;;23.09;53.43;99588.47;5065765;28;20037;-55
2022/08/28 08:04:50;;;;;;;13.25;3.15;;;;;;;24.29;51.03;99588.94;5060515;28;20049;-55
2022/08/28 08:07:16;;;;;;;12.57;3.63;;;;;;;24.52;50.24;99590.34;5047125;28;20028;-55
2022/08/28 08:09:42;;;;;;;9.27;3.35;;;;;;;24.41;49.71;99593.72;5067203;28;20037;-55
2022/08/28 08:12:08;;;;;;;14.52;3.47;;;;;;;24.93;48.55;99591.63;5070123;28;20255;-55
2022/08/28 08:14:35;;;;;;;14.98;3.42;;;;;;;23.62;51.33;99588.28;5071399;28;20522;-54
2022/08/28 08:17:01;;;;;;;10.75;3.42;;;;;;;24.38;48.95;99597.13;5071445;28;20047;-55
2022/08/28 08:19:26;;;;;;;12.77;3.45;;;;;;;25.72;46.25;99599.44;5070903;28;20466;-55
2022/08/28 08:21:52;;;;;;;11.10;3.38;;;;;;;24.08;48.78;99600.53;5071329;28;20028;-55
2022/08/28 08:24:19;;;;;;;10.52;3.00;;;;;;;23.40;51.56;99597.41;5054781;28;20036;-54
2022/08/28 08:26:46;;;;;;;7.65;3.50;;;;;;;22.05;55.44;99605.88;5091851;28;20105;-55
2022/08/28 08:29:12;;;;;;;12.23;3.75;;;;;;;21.26;57.69;99601.56;5064627;28;20067;-54
2022/08/28 08:31:38;;;;;;;8.95;3.10;;;;;;;23.43;52.57;99595.97;5065263;28;20272;-56
2022/08/28 08:34:03;;;;;;;13.68;3.90;;;;;;;22.66;54.38;99597.28;5065575;28;20044;-55
2022/08/28 08:36:30;;;;;;;8.75;3.13;;;;;;;23.06;53.25;99600.06;5060144;28;20463;-54
2022/08/28 08:38:55;;;;;;;16.85;3.40;;;;;;;23.28;52.73;99601.88;5071463;28;20060;-53
2022/08/28 08:41:30;;;;;;;10.55;3.05;;;;;;;24.35;49.74;99600.50;5068036;28;20012;-54
2022/08/28 08:44:00;;;;;;;10.25;3.30;;;;;;;23.00;52.68;99599.41;5069624;28;20516;-55
2022/08/28 08:46:34;;;;;;;14.68;3.20;;;;;;;22.88;53.06;99601.88;5062496;28;20491;-55
2022/08/28 08:49:04;;;;;;;14.13;3.80;;;;;;;21.59;56.27;99604.22;5055288;28;20506;-55
2022/08/28 08:51:41;;;;;;;13.57;3.50;;;;;;;22.44;55.22;99601.69;5093522;28;20034;-55
2022/08/28 08:54:10;;;;;;;10.70;3.72;;;;;;;22.60;54.34;99602.88;5065427;28;20024;-55
2022/08/28 08:56:36;;;;;;;9.47;3.40;;;;;;;23.32;52.18;99600.94;5047872;28;20541;-54
2022/08/28 08:59:02;;;;;;;11.40;3.63;;;;;;;22.56;54.18;99601.88;5069597;28;20067;-55
2022/08/28 09:01:30;;;;;;;13.95;3.47;;;;;;;21.70;56.01;99604.78;5055450;28;20051;-55
2022/08/28 09:04:13;;;;;;;10.23;3.45;;;;;;;22.13;55.31;99610.56;5067705;28;20506;-53
2022/08/28 09:06:43;;;;;;;15.40;3.83;;;;;;;22.24;53.88;99610.38;5065661;28;20037;-55
2022/08/28 09:09:25;;;;;;;11.18;3.35;;;;;;;23.65;51.36;99603.25;5069025;28;20040;-53
2022/08/28 09:12:07;;;;;;;9.32;3.20;;;;;;;23.95;49.68;99604.25;5070503;28;20045;-54
2022/08/28 09:14:51;;;;;;;10.77;3.20;;;;;;;25.56;45.98;99602.78;5070315;28;20033;-55
2022/08/28 09:17:19;;;;;;;13.23;3.22;;;;;;;25.21;46.39;99596.72;5069810;28;20044;-54
2022/08/28 09:19:45;;;;;;;13.73;3.63;;;;;;;25.08;46.67;99605.94;5065957;28;20043;-54
2022/08/28 09:22:10;;;;;;;10.68;3.40;;;;;;;24.44;47.29;99607.59;5068225;28;20021;-54
2022/08/28 09:24:37;;;;;;;9.45;2.90;;;;;;;24.52;47.57;99614.19;5070307;28;20028;-54
2022/08/28 09:27:25;;;;;;;10.55;2.85;;;;;;;26.30;43.48;99619.63;5067096;28;20044;-54
2022/08/28 09:30:02;;;;;;;12.52;3.15;;;;;;;25.11;45.62;99619.81;5058340;28;20302;-55
2022/08/28 09:32:31;;;;;;;16.20;3.10;;;;;;;23.77;48.09;99617.13;5067605;28;20596;-54
2022/08/28 09:35:36;;;;;;;12.95;3.50;;;;;;;22.88;50.20;99624.56;5059681;28;20020;-54
2022/08/28 09:38:21;;;;;;;11.35;3.00;;;;;;;21.88;51.56;99624.84;5058202;28;20048;-54
2022/08/28 09:43:32;;;;;;;11.48;3.53;;;;;;;24.99;46.36;99619.69;5063603;28;20063;-55
2022/08/28 09:46:07;;;;;;;15.23;3.70;;;;;;;24.81;46.30;99615.41;5069356;28;20024;-54
2022/08/28 09:48:37;;;;;;;11.27;3.22;;;;;;;25.26;44.51;99623.94;5064157;28;20033;-54
2022/08/28 09:51:07;;;;;;;;;;;;;;;23.46;48.17;99620.78;5064598;28;20036;-54
2022/08/28 09:53:37;;;;;;;12.10;3.75;;;;;;;23.77;49.08;99619.88;5068186;28;20003;-54
2022/08/28 09:56:11;;;;;;;16.45;4.18;;;;;;;24.21;48.79;99615.19;5083176;28;20040;-54
2022/08/28 09:58:39;;;;;;;10.43;3.00;;;;;;;24.20;48.14;99624.53;5060455;28;20028;-54
2022/08/28 10:01:36;;;;;;;12.38;3.00;;;;;;;24.47;46.81;99623.41;5067663;28;20031;-54
2022/08/28 10:04:26;;;;;;;13.32;3.78;;;;;;;25.86;45.28;99621.97;5066265;28;20086;-52
2022/08/28 10:07:10;;;;;;;16.40;3.00;;;;;;;26.27;43.38;99623.06;5069195;28;20054;-52
2022/08/28 10:09:51;;;;;;;13.27;3.45;;;;;;;25.25;43.91;99629.75;5061330;28;20045;-53
2022/08/28 10:12:40;;;;;;;15.27;3.72;;;;;;;25.87;43.38;99623.56;5069494;28;20028;-53
2022/08/28 10:15:17;;;;;;;16.17;3.33;;;;;;;25.71;43.76;99619.78;5060024;28;20029;-54
2022/08/28 10:17:57;;;;;;;14.70;3.50;;;;;;;23.91;46.84;99614.22;5066315;28;20033;-55
2022/08/28 10:20:45;;;;;;;10.27;3.08;;;;;;;24.20;46.27;99619.06;5063039;28;20468;-54
2022/08/28 10:23:32;;;;;;;11.27;3.00;;;;;;;25.23;44.25;99621.06;5059177;28;20394;-54
2022/08/28 10:26:24;;;;;;;9.48;3.15;;;;;;;25.24;42.75;99608.97;5050921;28;20149;-55
2022/08/28 10:29:08;;;;;;;13.52;3.42;;;;;;;23.64;46.27;99615.31;5052591;28;20479;-55
2022/08/28 10:31:55;;;;;;;13.77;3.20;;;;;;;24.73;44.96;99612.34;5055988;28;20060;-55
2022/08/28 10:34:29;;;;;;;12.77;3.28;;;;;;;25.15;43.11;99614.44;5064968;28;20040;-54
2022/08/28 10:37:04;;;;;;;14.05;3.55;;;;;;;23.70;45.75;99622.25;5070067;28;20031;-55
2022/08/28 10:39:59;;;;;;;8.23;3.00;;;;;;;23.78;46.33;99612.47;5058036;28;20025;-53
2022/08/28 10:42:30;;;;;;;8.95;2.90;;;;;;;24.90;43.81;99619.72;5051200;28;20044;-54
2022/08/28 10:44:59;;;;;;;11.20;3.42;;;;;;;25.08;43.43;99617.69;5071447;28;20029;-54
2022/08/28 10:47:25;;;;;;;13.13;3.27;;;;;;;24.87;43.53;99614.09;5070152;28;20387;-55
2022/08/28 10:49:52;;;;;;;9.55;3.08;;;;;;;25.83;41.80;99617.09;5104552;28;20289;-54
2022/08/28 10:52:25;;;;;;;8.68;3.20;;;;;;;25.12;43.46;99613.16;5052682;28;20753;-54
2022/08/28 10:55:06;;;;;;;12.73;3.35;;;;;;;26.00;40.74;99606.00;5064952;28;20060;-54
2022/08/28 10:57:42;;;;;;;13.88;3.05;;;;;;;25.69;41.92;99613.84;5071103;28;20028;-55
2022/08/28 11:00:12;;;;;;;11.27;3.80;;;;;;;26.21;40.52;99611.50;5069821;28;20021;-55
2022/08/28 11:02:38;;;;;;;;;;;;;;;25.20;41.88;99605.25;5062470;28;20501;-54
2022/08/28 11:05:04;;;;;;;9.93;2.90;;;;;;;24.02;44.22;99607.31;5070580;28;19916;-54
2022/08/28 11:07:35;;;;;;;12.70;3.45;;;;;;;23.76;44.59;99601.81;5061468;28;20039;-54
2022/08/28 11:10:36;;;;;;;10.90;3.10;;;;;;;24.50;43.79;99602.75;5068859;28;20495;-54
2022/08/28 11:13:03;;;;;;;10.35;3.40;;;;;;;25.12;43.02;99604.94;5043609;28;20080;-53
2022/08/28 11:15:30;;;;;;;9.25;3.20;;;;;;;25.49;41.91;99609.94;5066875;28;20059;-54
2022/08/28 11:18:16;;;;;;;11.05;3.30;;;;;;;25.22;42.52;99608.47;5066452;28;20083;-54
2022/08/28 11:20:43;;;;;;;9.35;3.60;;;;;;;24.83;42.80;99613.13;5060853;28;20105;-55
2022/08/28 11:23:14;;;;;;;8.55;3.30;;;;;;;24.38;42.99;99614.34;5061147;28;20379;-55
2022/08/28 11:25:39;;;;;;;11.27;3.45;;;;;;;23.89;43.95;99614.56;5058684;28;20079;-54
2022/08/28 11:28:23;;;;;;;7.38;3.28;;;;;;;23.78;43.55;99616.00;5056888;28;20068;-54
2022/08/28 11:31:04;;;;;;;13.00;4.15;;;;;;;22.45;46.32;99618.88;5066349;28;20039;-53
2022/08/28 11:33:35;;;;;;;12.50;3.80;;;;;;;23.94;44.59;99615.50;5072067;28;20120;-53
2022/08/28 11:36:01;;;;;;;11.65;3.60;;;;;;;24.36;42.44;99610.31;5067875;28;20032;-53
2022/08/28 11:38:42;;;;;;;9.10;3.65;;;;;;;24.36;42.92;99604.84;5054311;28;20020;-54
2022/08/28 11:41:28;;;;;;;12.27;3.60;;;;;;;24.09;43.81;99609.56;5064804;28;20467;-54
2022/08/28 11:44:03;;;;;;;10.07;3.72;;;;;;;24.55;42.58;99610.81;5068654;28;20052;-53